3TX4 weather

Public forecast

Using degrees Fahrenheit for public forecast. Weather courtesy of forecast.io.

Closest aviation weather report (METAR) to Willow Run Airport

Closest report is Fort Worth Alliance Airport, 7.1 nm (13.2 km) SSE. Retrieved 2020/08/14 07:53 UTC (34 minutes ago):

KAFW 140753Z 18011KT 10SM FEW200 30/19 A2986 RMK AO2 SLP088 T03000194

Closest aviation forecast (TAF) to Willow Run Airport

Closest forecast is Fort Worth Alliance Airport, 7.1 nm (13.2 km) SSE. Retrieved 2020/08/14 06:22 UTC (2 hours ago):

TAF KAFW 140520Z 1406/1506 18011KT P6SM SKC FM141500 22015KT P6SM FEW060 FEW250 FM150100 17010KT P6SM FEW250